createdAt,value
2018-01-01T00:01:09.148Z,16.00
2018-01-01T00:03:37.554Z,16.00
2018-01-01T00:06:05.132Z,16.00
2018-01-01T00:08:32.738Z,16.00
2018-01-01T00:11:00.322Z,16.00
2018-01-01T00:13:28.656Z,16.00
2018-01-01T00:15:56.272Z,16.00
2018-01-01T00:18:23.888Z,16.00
2018-01-01T00:20:51.502Z,16.00
2018-01-01T00:23:19.187Z,16.00
2018-01-01T00:25:46.788Z,16.00
2018-01-01T00:28:15.258Z,16.00
2018-01-01T00:30:42.846Z,16.00
2018-01-01T00:33:11.209Z,16.00
2018-01-01T00:35:38.784Z,16.00
2018-01-01T00:38:07.142Z,16.00
2018-01-01T00:40:34.757Z,16.00
2018-01-01T00:43:02.376Z,16.00
2018-01-01T00:45:29.988Z,16.00
2018-01-01T00:47:57.572Z,16.00
2018-01-01T00:50:25.178Z,16.00
2018-01-01T00:52:53.544Z,16.00
2018-01-01T00:55:21.888Z,16.00
2018-01-01T00:57:49.495Z,16.00
2018-01-01T01:00:17.863Z,16.00
2018-01-01T01:02:46.222Z,16.00
2018-01-01T01:05:13.849Z,16.00
2018-01-01T01:07:41.446Z,16.00
2018-01-01T01:10:09.025Z,16.00
2018-01-01T01:12:37.368Z,16.00
2018-01-01T01:15:05.748Z,16.00
2018-01-01T01:17:33.365Z,16.00
2018-01-01T01:20:00.939Z,16.00
2018-01-01T01:22:28.532Z,16.00
2018-01-01T01:24:56.117Z,16.00
2018-01-01T01:27:23.687Z,16.00
2018-01-01T01:29:52.070Z,16.00
2018-01-01T01:32:20.412Z,16.00
2018-01-01T01:34:48.004Z,16.00
2018-01-01T01:37:16.366Z,16.00
2018-01-01T01:39:43.942Z,16.00
2018-01-01T01:42:12.338Z,16.00
2018-01-01T01:44:40.690Z,16.00
2018-01-01T01:47:08.289Z,16.00
2018-01-01T01:49:35.882Z,16.00
2018-01-01T01:52:03.454Z,16.00
2018-01-01T01:54:31.049Z,16.00
2018-01-01T01:56:59.392Z,16.00
2018-01-01T01:59:26.982Z,16.00
2018-01-01T02:01:55.341Z,15.90
2018-01-01T02:04:22.915Z,15.90
2018-01-01T02:06:50.528Z,15.90
2018-01-01T02:09:18.109Z,16.00
2018-01-01T02:11:45.693Z,15.90
2018-01-01T02:14:13.301Z,15.90
2018-01-01T02:16:40.892Z,16.00
2018-01-01T02:19:08.508Z,15.90
2018-01-01T02:21:36.093Z,15.90
2018-01-01T02:24:03.678Z,15.90
2018-01-01T02:26:31.271Z,15.90
2018-01-01T02:28:59.666Z,15.90
2018-01-01T02:31:28.041Z,15.90
2018-01-01T02:33:56.390Z,15.90
2018-01-01T02:36:23.964Z,15.90
2018-01-01T02:38:52.319Z,15.90
2018-01-01T02:41:19.916Z,15.90
2018-01-01T02:43:48.291Z,15.90
2018-01-01T02:46:16.657Z,15.90
2018-01-01T02:48:44.229Z,15.90
2018-01-01T02:51:12.711Z,15.90
2018-01-01T02:53:41.074Z,15.90
2018-01-01T02:56:08.702Z,15.90
2018-01-01T02:58:36.287Z,15.90
2018-01-01T03:01:03.885Z,15.90
2018-01-01T03:03:32.245Z,15.90
2018-01-01T03:05:59.857Z,15.90
2018-01-01T03:08:27.498Z,15.90
2018-01-01T03:10:55.098Z,15.90
2018-01-01T03:13:22.685Z,15.90
2018-01-01T03:15:51.060Z,15.90
2018-01-01T03:18:18.637Z,15.90
2018-01-01T03:20:47.013Z,15.90
2018-01-01T03:23:15.364Z,15.90
2018-01-01T03:25:42.961Z,15.90
2018-01-01T03:28:11.347Z,15.90
2018-01-01T03:30:39.706Z,15.90
2018-01-01T03:33:08.110Z,15.90
2018-01-01T03:35:35.726Z,15.90
2018-01-01T03:38:03.309Z,15.90
2018-01-01T03:40:31.675Z,15.90
2018-01-01T03:42:59.256Z,15.90
2018-01-01T03:45:27.628Z,16.00
2018-01-01T03:47:55.969Z,16.00
2018-01-01T03:50:23.589Z,15.90
2018-01-01T03:52:51.177Z,16.00
2018-01-01T03:55:18.778Z,16.00
2018-01-01T03:57:46.435Z,15.90
2018-01-01T04:00:14.037Z,15.90
2018-01-01T04:02:41.645Z,16.00
2018-01-01T04:05:09.231Z,15.90
2018-01-01T04:07:36.813Z,15.90
2018-01-01T04:10:05.193Z,16.00
2018-01-01T04:12:32.784Z,15.90
2018-01-01T04:15:00.377Z,16.00
2018-01-01T04:17:27.959Z,16.00
2018-01-01T04:19:56.315Z,16.00
2018-01-01T04:22:23.933Z,16.00
2018-01-01T04:24:51.533Z,15.90
2018-01-01T04:27:19.139Z,16.00
2018-01-01T04:29:46.715Z,16.00
2018-01-01T04:32:14.315Z,16.00
2018-01-01T04:34:41.943Z,16.00
2018-01-01T04:37:09.534Z,16.00
2018-01-01T04:39:37.143Z,16.00
2018-01-01T04:42:04.737Z,16.00
2018-01-01T04:44:32.321Z,15.90
2018-01-01T04:46:59.926Z,15.90
2018-01-01T04:49:27.513Z,15.90
2018-01-01T04:51:55.094Z,15.90
2018-01-01T04:54:22.678Z,16.00
2018-01-01T04:56:50.256Z,16.00
2018-01-01T04:59:18.633Z,16.00
2018-01-01T05:01:46.996Z,16.00
2018-01-01T05:04:14.590Z,16.00
2018-01-01T05:06:42.177Z,16.10
2018-01-01T05:09:09.786Z,16.10
2018-01-01T05:11:38.159Z,16.10
2018-01-01T05:14:05.735Z,16.10
2018-01-01T05:16:34.069Z,16.20
2018-01-01T05:19:01.674Z,16.10
2018-01-01T05:21:30.040Z,16.20
2018-01-01T05:23:57.666Z,16.20
2018-01-01T05:26:25.248Z,16.20
2018-01-01T05:28:52.845Z,16.20
2018-01-01T05:31:20.437Z,16.20
2018-01-01T05:33:48.036Z,16.20
2018-01-01T05:36:15.632Z,16.30
2018-01-01T05:38:43.222Z,16.30
2018-01-01T05:41:10.839Z,16.30
2018-01-01T05:43:39.208Z,16.30
2018-01-01T05:46:06.814Z,16.30
2018-01-01T05:48:34.403Z,16.30
2018-01-01T05:51:01.992Z,16.30
2018-01-01T05:53:30.371Z,16.30
2018-01-01T05:55:58.729Z,16.30
2018-01-01T05:58:26.321Z,16.30
2018-01-01T06:00:54.675Z,16.30
2018-01-01T06:03:22.251Z,16.30
2018-01-01T06:05:50.643Z,16.30
2018-01-01T06:08:18.999Z,16.30
2018-01-01T06:10:46.586Z,16.30
2018-01-01T06:13:14.941Z,16.40
2018-01-01T06:15:42.536Z,16.40
2018-01-01T06:18:10.157Z,16.30
2018-01-01T06:20:37.776Z,16.30
2018-01-01T06:23:05.370Z,16.40
2018-01-01T06:25:32.955Z,16.40
2018-01-01T06:28:00.564Z,16.40
2018-01-01T06:30:28.184Z,16.40
2018-01-01T06:32:56.538Z,16.40
2018-01-01T06:35:24.126Z,16.40
2018-01-01T06:37:52.501Z,16.40
2018-01-01T06:40:20.861Z,16.40
2018-01-01T06:42:48.481Z,16.40
2018-01-01T06:45:16.073Z,16.40
2018-01-01T06:47:43.652Z,16.40
2018-01-01T06:50:15.693Z,16.40
2018-01-01T06:52:43.277Z,16.40
2018-01-01T06:55:10.884Z,16.40
2018-01-01T06:57:38.487Z,16.40
2018-01-01T07:00:06.090Z,16.30
2018-01-01T07:02:33.704Z,16.30
2018-01-01T07:05:01.316Z,16.20
2018-01-01T07:07:28.963Z,16.30
2018-01-01T07:09:57.312Z,16.30
2018-01-01T07:12:24.908Z,16.30
2018-01-01T07:14:52.559Z,16.30
2018-01-01T07:17:20.912Z,16.20
2018-01-01T07:19:48.520Z,16.20
2018-01-01T07:22:16.113Z,16.20
2018-01-01T07:24:43.719Z,16.20
2018-01-01T07:27:12.076Z,16.20
2018-01-01T07:29:39.650Z,16.20
2018-01-01T07:32:08.038Z,16.20
2018-01-01T07:34:36.389Z,16.20
2018-01-01T07:37:03.964Z,16.20
2018-01-01T07:39:31.551Z,16.20
2018-01-01T07:41:59.133Z,16.20
2018-01-01T07:44:26.749Z,16.20
2018-01-01T07:46:54.407Z,16.20
2018-01-01T07:49:22.767Z,16.20
2018-01-01T07:51:50.349Z,16.30
2018-01-01T07:54:18.711Z,16.20
2018-01-01T07:56:46.313Z,16.30
2018-01-01T07:59:14.670Z,16.20
2018-01-01T08:01:42.246Z,16.20
2018-01-01T08:04:10.589Z,16.30
2018-01-01T08:06:38.201Z,16.30
2018-01-01T08:09:05.811Z,16.30
2018-01-01T08:11:33.389Z,16.30
2018-01-01T08:14:00.960Z,16.30
2018-01-01T08:16:29.326Z,16.30
2018-01-01T08:18:56.906Z,16.30
2018-01-01T08:21:25.269Z,16.30
2018-01-01T08:23:52.891Z,16.30
2018-01-01T08:26:20.492Z,16.30
2018-01-01T08:28:48.071Z,16.30
2018-01-01T08:31:16.413Z,16.40
2018-01-01T08:33:44.014Z,16.40
2018-01-01T08:36:12.348Z,16.60
2018-01-01T08:38:39.939Z,16.60
2018-01-01T08:41:08.294Z,16.70
2018-01-01T08:43:35.902Z,16.70
2018-01-01T08:46:03.500Z,16.80
2018-01-01T08:48:31.086Z,17.00
2018-01-01T08:50:58.672Z,17.10
2018-01-01T08:53:27.036Z,17.30
2018-01-01T08:55:55.385Z,17.40
2018-01-01T08:58:23.000Z,17.40
2018-01-01T09:00:50.577Z,17.60
2018-01-01T09:03:18.169Z,17.70
2018-01-01T09:05:45.767Z,17.80
2018-01-01T09:08:14.122Z,18.00
2018-01-01T09:10:41.734Z,18.00
2018-01-01T09:13:09.318Z,18.10
2018-01-01T09:15:36.905Z,18.20
2018-01-01T09:18:04.507Z,18.30
2018-01-01T09:20:32.096Z,18.40
2018-01-01T09:23:00.496Z,18.60
2018-01-01T09:25:28.096Z,18.60
2018-01-01T09:27:56.451Z,18.80
2018-01-01T09:30:24.034Z,18.70
2018-01-01T09:32:52.386Z,18.90
2018-01-01T09:35:20.022Z,18.90
2018-01-01T09:37:47.616Z,19.00
2018-01-01T09:40:15.193Z,19.10
2018-01-01T09:42:43.558Z,19.30
2018-01-01T09:45:11.929Z,19.40
2018-01-01T09:47:39.555Z,19.30
2018-01-01T09:50:07.140Z,19.40
2018-01-01T09:52:34.709Z,19.50
2018-01-01T09:55:02.315Z,19.60
2018-01-01T09:57:29.902Z,19.60
2018-01-01T09:59:57.514Z,19.70
2018-01-01T10:02:25.885Z,19.80
2018-01-01T10:04:54.247Z,19.90
2018-01-01T10:07:21.827Z,19.90
2018-01-01T10:09:50.178Z,20.00
2018-01-01T10:12:17.825Z,20.00
2018-01-01T10:14:45.412Z,20.00
2018-01-01T10:17:13.003Z,20.10
2018-01-01T10:19:40.593Z,20.10
2018-01-01T10:22:08.181Z,20.20
2018-01-01T10:24:35.805Z,20.20
2018-01-01T10:27:03.414Z,20.20
2018-01-01T10:29:31.000Z,20.20
2018-01-01T10:31:59.344Z,20.20
2018-01-01T10:34:26.933Z,20.20
2018-01-01T10:36:54.560Z,20.20
2018-01-01T10:39:22.160Z,20.20
2018-01-01T10:41:50.531Z,20.10
2018-01-01T10:44:18.878Z,20.10
2018-01-01T10:46:46.476Z,20.00
2018-01-01T10:49:14.866Z,20.00
2018-01-01T10:51:43.226Z,19.90
2018-01-01T10:54:11.593Z,19.90
2018-01-01T10:56:39.191Z,19.90
2018-01-01T10:59:06.786Z,19.90
2018-01-01T11:01:34.405Z,19.80
2018-01-01T11:04:02.758Z,19.70
2018-01-01T11:06:31.325Z,19.70
2018-01-01T11:08:58.921Z,19.60
2018-01-01T11:11:27.260Z,19.40
2018-01-01T11:13:54.895Z,19.40
2018-01-01T11:16:22.489Z,19.30
2018-01-01T11:18:50.082Z,19.30
2018-01-01T11:21:18.429Z,19.20
2018-01-01T11:23:46.021Z,19.20
2018-01-01T11:26:14.415Z,19.10
2018-01-01T11:28:42.022Z,19.10
2018-01-01T11:31:09.601Z,19.10
2018-01-01T11:33:37.173Z,19.10
2018-01-01T11:36:05.543Z,19.10
2018-01-01T11:38:33.173Z,19.00
2018-01-01T11:41:01.520Z,19.00
2018-01-01T11:43:29.102Z,19.00
2018-01-01T11:45:56.692Z,19.00
2018-01-01T11:48:24.284Z,18.90
2018-01-01T11:50:52.673Z,18.90
2018-01-01T11:53:21.018Z,18.90
2018-01-01T11:55:48.618Z,18.90
2018-01-01T11:58:19.226Z,18.90
2018-01-01T12:00:47.603Z,18.80
2018-01-01T12:03:15.996Z,18.80
2018-01-01T12:05:44.364Z,18.80
2018-01-01T12:08:12.447Z,18.80
2018-01-01T12:10:40.045Z,18.80
2018-01-01T12:13:07.824Z,18.70
2018-01-01T12:15:36.237Z,18.70
2018-01-01T12:18:04.597Z,18.70
2018-01-01T12:20:32.264Z,18.70
2018-01-01T12:23:00.840Z,18.70
2018-01-01T12:25:28.468Z,18.70
2018-01-01T12:27:56.062Z,18.70
2018-01-01T12:30:23.638Z,18.60
2018-01-01T12:32:51.222Z,18.60
2018-01-01T12:35:20.025Z,18.60
2018-01-01T12:37:51.747Z,18.60
2018-01-01T12:40:19.328Z,18.60
2018-01-01T12:42:48.710Z,18.60
2018-01-01T12:45:16.302Z,18.50
2018-01-01T12:47:45.898Z,18.50
2018-01-01T12:50:15.259Z,18.60
2018-01-01T12:52:42.821Z,18.50
2018-01-01T12:55:10.435Z,18.60
2018-01-01T12:57:38.024Z,18.60
2018-01-01T13:00:05.893Z,18.70
2018-01-01T13:02:34.015Z,18.70
2018-01-01T13:05:02.371Z,18.70
2018-01-01T13:07:30.031Z,18.60
2018-01-01T13:09:57.628Z,18.70
2018-01-01T13:12:25.972Z,18.60
2018-01-01T13:14:53.563Z,18.60
2018-01-01T13:17:21.956Z,18.50
2018-01-01T13:19:49.566Z,18.50
2018-01-01T13:22:18.056Z,18.50
2018-01-01T13:24:45.633Z,18.50
2018-01-01T13:27:13.239Z,18.50
2018-01-01T13:29:40.876Z,18.50
2018-01-01T13:32:09.221Z,18.40
2018-01-01T13:34:36.800Z,18.40
2018-01-01T13:37:05.162Z,18.40
2018-01-01T13:39:32.756Z,18.30
2018-01-01T13:42:01.124Z,18.30
2018-01-01T13:44:29.472Z,18.30
2018-01-01T13:46:57.079Z,18.30
2018-01-01T13:49:25.438Z,18.30
2018-01-01T13:51:53.811Z,18.30
2018-01-01T13:54:21.429Z,18.30
2018-01-01T13:56:48.997Z,18.30
2018-01-01T13:59:16.585Z,18.30
2018-01-01T14:01:44.198Z,18.30
2018-01-01T14:04:11.809Z,18.30
2018-01-01T14:06:39.432Z,18.30
2018-01-01T14:09:07.025Z,18.30
2018-01-01T14:11:34.628Z,18.30
2018-01-01T14:14:02.257Z,18.30
2018-01-01T14:16:32.573Z,18.30
2018-01-01T14:19:00.234Z,18.30
2018-01-01T14:21:27.835Z,18.30
2018-01-01T14:23:56.173Z,18.30
2018-01-01T14:26:24.076Z,18.30
2018-01-01T14:28:52.431Z,18.30
2018-01-01T14:31:20.058Z,18.30
2018-01-01T14:33:47.642Z,18.30
2018-01-01T14:36:15.215Z,18.30
2018-01-01T14:38:42.797Z,18.30
2018-01-01T14:41:11.145Z,18.30
2018-01-01T14:43:38.780Z,18.30
2018-01-01T14:46:06.370Z,18.30
2018-01-01T14:48:38.281Z,18.20
2018-01-01T14:51:05.865Z,18.30
2018-01-01T14:53:33.450Z,18.20
2018-01-01T14:56:01.032Z,18.20
2018-01-01T14:58:29.384Z,18.20
2018-01-01T15:00:57.002Z,18.20
2018-01-01T15:03:24.597Z,18.20
2018-01-01T15:05:52.166Z,18.10
2018-01-01T15:08:19.747Z,18.10
2018-01-01T15:10:47.325Z,18.10
2018-01-01T15:13:15.679Z,18.10
2018-01-01T15:15:43.265Z,18.10
2018-01-01T15:18:11.616Z,18.10
2018-01-01T15:20:39.207Z,18.00
2018-01-01T15:23:07.553Z,18.10
2018-01-01T15:25:35.174Z,18.00
2018-01-01T15:28:02.744Z,18.00
2018-01-01T15:30:30.354Z,18.00
2018-01-01T15:32:58.710Z,18.00
2018-01-01T15:35:26.298Z,18.00
2018-01-01T15:37:54.672Z,18.00
2018-01-01T15:40:23.043Z,18.00
2018-01-01T15:42:50.630Z,18.00
2018-01-01T15:45:18.994Z,18.00
2018-01-01T15:47:47.347Z,18.00
2018-01-01T15:50:14.988Z,17.90
2018-01-01T15:52:42.572Z,18.00
2018-01-01T15:55:10.172Z,18.00
2018-01-01T15:57:37.775Z,18.00
2018-01-01T16:00:05.376Z,17.90
2018-01-01T16:02:33.763Z,17.90
2018-01-01T16:05:02.123Z,18.00
2018-01-01T16:07:31.730Z,17.90
2018-01-01T16:09:59.329Z,17.90
2018-01-01T16:12:26.918Z,17.90
2018-01-01T16:14:54.495Z,17.90
2018-01-01T16:17:22.065Z,17.90
2018-01-01T16:19:49.697Z,17.90
2018-01-01T16:22:17.269Z,17.90
2018-01-01T16:24:44.850Z,17.90
2018-01-01T16:27:12.414Z,17.80
2018-01-01T16:29:39.996Z,17.90
2018-01-01T16:32:08.383Z,17.90
2018-01-01T16:34:36.733Z,17.90
2018-01-01T16:37:04.309Z,17.90
2018-01-01T16:39:32.672Z,17.90
2018-01-01T16:42:00.278Z,17.90
2018-01-01T16:44:27.878Z,17.90
2018-01-01T16:46:55.472Z,17.90
2018-01-01T16:49:23.834Z,17.90
2018-01-01T16:51:51.440Z,17.90
2018-01-01T16:54:19.034Z,17.90
2018-01-01T16:56:46.640Z,17.80
2018-01-01T16:59:14.985Z,17.80
2018-01-01T17:01:42.580Z,17.80
2018-01-01T17:04:10.936Z,17.80
2018-01-01T17:06:38.500Z,17.80
2018-01-01T17:09:06.134Z,17.80
2018-01-01T17:11:33.727Z,17.80
2018-01-01T17:14:01.327Z,17.80
2018-01-01T17:16:28.941Z,17.80
2018-01-01T17:18:56.546Z,17.80
2018-01-01T17:21:24.132Z,17.80
2018-01-01T17:23:51.714Z,17.80
2018-01-01T17:26:19.344Z,17.90
2018-01-01T17:28:46.969Z,17.90
2018-01-01T17:31:15.328Z,17.90
2018-01-01T17:33:42.920Z,17.90
2018-01-01T17:36:10.509Z,17.90
2018-01-01T17:38:38.874Z,17.90
2018-01-01T17:41:06.534Z,17.90
2018-01-01T17:43:34.145Z,18.00
2018-01-01T17:46:01.732Z,17.90
2018-01-01T17:48:30.086Z,18.00
2018-01-01T17:50:57.674Z,17.90
2018-01-01T17:53:26.096Z,18.00
2018-01-01T17:55:53.713Z,18.00
2018-01-01T17:58:22.061Z,18.00
2018-01-01T18:00:49.641Z,18.00
2018-01-01T18:03:18.010Z,18.00
2018-01-01T18:05:45.620Z,18.00
2018-01-01T18:08:13.220Z,18.00
2018-01-01T18:10:40.812Z,18.00
2018-01-01T18:13:09.163Z,18.00
2018-01-01T18:15:36.746Z,18.00
2018-01-01T18:18:05.093Z,18.00
2018-01-01T18:20:32.694Z,18.00
2018-01-01T18:23:01.041Z,18.00
2018-01-01T18:25:30.128Z,18.00
2018-01-01T18:27:57.713Z,18.00
2018-01-01T18:30:25.302Z,18.00
2018-01-01T18:32:52.938Z,18.00
2018-01-01T18:35:21.296Z,18.00
2018-01-01T18:37:48.864Z,18.00
2018-01-01T18:40:16.908Z,18.00
2018-01-01T18:42:45.505Z,18.00
2018-01-01T18:45:13.092Z,18.00
2018-01-01T18:47:41.665Z,18.00
2018-01-01T18:50:09.261Z,18.00
2018-01-01T18:52:37.629Z,17.90
2018-01-01T18:55:07.923Z,17.90
2018-01-01T18:57:35.522Z,17.90
2018-01-01T19:00:04.241Z,17.90
2018-01-01T19:02:31.849Z,17.90
2018-01-01T19:04:59.437Z,17.90
2018-01-01T19:07:27.801Z,17.90
2018-01-01T19:09:56.190Z,17.90
2018-01-01T19:12:24.527Z,17.90
2018-01-01T19:14:52.108Z,18.00
2018-01-01T19:17:19.684Z,18.00
2018-01-01T19:19:48.030Z,18.00
2018-01-01T19:22:15.652Z,18.00
2018-01-01T19:24:43.264Z,18.00
2018-01-01T19:27:10.836Z,18.00
2018-01-01T19:29:38.401Z,18.00
2018-01-01T19:32:06.750Z,18.00
2018-01-01T19:34:34.371Z,18.00
2018-01-01T19:37:01.991Z,18.00
2018-01-01T19:39:29.569Z,18.00
2018-01-01T19:41:58.933Z,18.10
2018-01-01T19:44:26.527Z,18.00
2018-01-01T19:46:54.982Z,18.10
2018-01-01T19:49:22.590Z,18.10
2018-01-01T19:51:51.592Z,18.10
2018-01-01T19:54:19.169Z,18.10
2018-01-01T19:56:46.764Z,18.10
2018-01-01T19:59:15.432Z,18.10
2018-01-01T20:01:43.828Z,18.10
2018-01-01T20:04:11.438Z,18.10
2018-01-01T20:06:39.023Z,18.10
2018-01-01T20:09:06.662Z,18.10
2018-01-01T20:11:34.285Z,18.10
2018-01-01T20:14:01.891Z,18.10
2018-01-01T20:16:29.508Z,18.10
2018-01-01T20:18:58.816Z,18.10
2018-01-01T20:21:27.180Z,18.10
2018-01-01T20:23:54.846Z,18.10
2018-01-01T20:26:22.479Z,18.10
2018-01-01T20:28:50.126Z,18.10
2018-01-01T20:31:17.760Z,18.10
2018-01-01T20:33:46.130Z,18.10
2018-01-01T20:36:14.529Z,18.10
2018-01-01T20:38:43.248Z,18.10
2018-01-01T20:41:10.858Z,18.10
2018-01-01T20:43:39.213Z,18.10
2018-01-01T20:46:06.871Z,18.10
2018-01-01T20:48:34.478Z,18.10
2018-01-01T20:51:02.129Z,18.10
2018-01-01T20:53:30.465Z,18.10
2018-01-01T20:55:58.038Z,18.10
2018-01-01T20:58:25.695Z,18.10
2018-01-01T21:00:53.515Z,18.10
2018-01-01T21:03:21.274Z,18.10
2018-01-01T21:05:48.852Z,18.10
2018-01-01T21:08:16.463Z,18.10
2018-01-01T21:10:44.065Z,18.10
2018-01-01T21:13:11.690Z,18.10
2018-01-01T21:15:40.041Z,18.10
2018-01-01T21:18:07.632Z,18.10
2018-01-01T21:20:36.005Z,18.10
2018-01-01T21:23:04.370Z,18.10
2018-01-01T21:25:32.252Z,18.10
2018-01-01T21:27:59.831Z,18.10
2018-01-01T21:30:27.443Z,18.10
2018-01-01T21:32:55.035Z,18.10
2018-01-01T21:35:23.398Z,18.10
2018-01-01T21:37:51.046Z,18.10
2018-01-01T21:40:18.637Z,18.10
2018-01-01T21:42:46.211Z,18.10
2018-01-01T21:45:14.566Z,18.10
2018-01-01T21:47:42.142Z,18.10
2018-01-01T21:50:10.495Z,18.10
2018-01-01T21:52:38.140Z,18.10
2018-01-01T21:55:05.764Z,18.10
2018-01-01T21:57:34.120Z,18.10
2018-01-01T22:00:02.517Z,18.10
2018-01-01T22:02:30.108Z,18.10
2018-01-01T22:04:57.718Z,18.10
2018-01-01T22:07:25.336Z,18.10
2018-01-01T22:09:52.937Z,18.10
2018-01-01T22:12:20.536Z,18.20
2018-01-01T22:14:48.113Z,18.10
2018-01-01T22:17:15.683Z,18.10
2018-01-01T22:19:43.326Z,18.10
2018-01-01T22:22:10.947Z,18.10
2018-01-01T22:24:38.573Z,18.10
2018-01-01T22:27:06.153Z,18.10
2018-01-01T22:29:33.726Z,18.10
2018-01-01T22:32:02.113Z,18.20
2018-01-01T22:34:29.684Z,18.20
2018-01-01T22:36:58.025Z,18.20
2018-01-01T22:39:25.620Z,18.20
2018-01-01T22:41:53.982Z,18.20
2018-01-01T22:44:21.595Z,18.20
2018-01-01T22:46:49.198Z,18.20
2018-01-01T22:49:16.803Z,18.20
2018-01-01T22:51:44.419Z,18.20
2018-01-01T22:54:12.040Z,18.30
2018-01-01T22:56:39.685Z,18.20
2018-01-01T22:59:08.035Z,18.20
2018-01-01T23:01:36.406Z,18.20
2018-01-01T23:04:03.998Z,18.20
2018-01-01T23:06:32.342Z,18.20
2018-01-01T23:08:59.956Z,18.20
2018-01-01T23:11:27.555Z,18.20
2018-01-01T23:13:55.139Z,18.20
2018-01-01T23:16:23.476Z,18.20
2018-01-01T23:18:51.074Z,18.20
2018-01-01T23:21:18.706Z,18.20
2018-01-01T23:23:46.280Z,18.20
2018-01-01T23:26:13.871Z,18.20
2018-01-01T23:28:42.234Z,18.20
2018-01-01T23:31:10.629Z,18.20
2018-01-01T23:33:39.012Z,18.20
2018-01-01T23:36:07.380Z,18.20
2018-01-01T23:38:35.746Z,18.20
2018-01-01T23:41:03.339Z,18.20
2018-01-01T23:43:31.686Z,18.30
2018-01-01T23:45:59.306Z,18.20
2018-01-01T23:48:26.902Z,18.20
2018-01-01T23:50:54.514Z,18.20
2018-01-01T23:53:22.133Z,18.30
2018-01-01T23:55:49.747Z,18.30
2018-01-01T23:58:17.358Z,18.30
